createdAt,value
2019-05-22T00:01:29.752Z,16.43
2019-05-22T00:07:16.126Z,17.93
2019-05-22T00:13:36.743Z,17.37
2019-05-22T00:16:21.355Z,17.87
2019-05-22T00:19:03.607Z,18.13
2019-05-22T00:25:33.167Z,18.50
2019-05-22T00:28:24.305Z,19.30
2019-05-22T00:31:17.855Z,18.50
2019-05-22T00:37:18.944Z,18.43
2019-05-22T00:40:30.849Z,19.53
2019-05-22T00:43:30.124Z,20.53
2019-05-22T00:46:21.799Z,19.27
2019-05-22T00:49:02.342Z,21.67
2019-05-22T00:52:11.418Z,20.00
2019-05-22T00:55:20.159Z,21.73
2019-05-22T00:58:29.291Z,20.03
2019-05-22T01:01:37.658Z,19.90
2019-05-22T01:07:46.838Z,19.10
2019-05-22T01:19:49.032Z,20.70
2019-05-22T01:22:39.748Z,20.53
2019-05-22T01:28:59.336Z,20.83
2019-05-22T01:31:52.191Z,22.23
2019-05-22T01:34:42.222Z,21.30
2019-05-22T01:49:50.312Z,23.03
2019-05-22T01:58:48.220Z,21.77
2019-05-22T02:01:40.425Z,22.47
2019-05-22T02:04:30.681Z,22.20
2019-05-22T02:07:20.766Z,23.63
2019-05-22T02:10:32.985Z,23.00
2019-05-22T02:16:01.185Z,22.50
2019-05-22T02:18:52.617Z,24.17
2019-05-22T02:21:35.803Z,23.20
2019-05-22T02:24:18.600Z,24.10
2019-05-22T02:27:02.145Z,24.03
2019-05-22T02:29:45.584Z,24.27
2019-05-22T02:32:29.170Z,23.43
2019-05-22T02:35:11.308Z,22.77
2019-05-22T02:38:01.422Z,22.90
2019-05-22T02:43:48.799Z,23.47
2019-05-22T02:46:39.012Z,23.17
2019-05-22T02:49:24.022Z,22.67
2019-05-22T02:52:06.884Z,23.07
2019-05-22T02:54:50.015Z,23.73
2019-05-22T02:57:31.642Z,24.07
2019-05-22T03:00:12.740Z,23.83
2019-05-22T03:03:02.479Z,24.40
2019-05-22T03:05:52.141Z,23.90
2019-05-22T03:09:02.555Z,24.97
2019-05-22T03:14:54.798Z,23.10
2019-05-22T03:20:43.856Z,22.83
2019-05-22T03:23:57.386Z,22.77
2019-05-22T03:27:07.311Z,24.33
2019-05-22T03:30:17.523Z,23.90
2019-05-22T03:33:08.494Z,22.50
2019-05-22T03:36:18.924Z,22.83
2019-05-22T03:39:09.210Z,23.53
2019-05-22T03:41:59.094Z,25.57
2019-05-22T03:45:09.499Z,22.53
2019-05-22T03:47:59.645Z,24.43
2019-05-22T03:50:41.778Z,23.53
2019-05-22T03:53:23.860Z,23.53
2019-05-22T03:55:56.867Z,23.60
2019-05-22T03:58:46.998Z,22.23
2019-05-22T04:01:36.933Z,21.30
2019-05-22T04:04:45.391Z,23.70
2019-05-22T04:10:53.743Z,23.40
2019-05-22T04:19:52.051Z,23.37
2019-05-22T04:22:43.780Z,24.50
2019-05-22T04:25:53.656Z,24.67
2019-05-22T04:28:35.781Z,23.87
2019-05-22T04:31:17.886Z,24.70
2019-05-22T04:33:59.835Z,23.77
2019-05-22T04:36:40.409Z,24.23
2019-05-22T04:39:50.181Z,25.77
2019-05-22T04:45:41.030Z,24.50
2019-05-22T04:51:32.711Z,23.97
2019-05-22T04:54:22.288Z,22.90
2019-05-22T04:57:12.719Z,24.27
2019-05-22T05:00:04.156Z,24.70
2019-05-22T05:02:55.257Z,23.40
2019-05-22T05:06:06.875Z,23.40
2019-05-22T05:08:57.803Z,23.20
2019-05-22T05:11:49.557Z,24.03
2019-05-22T05:14:39.995Z,26.97
2019-05-22T05:17:31.271Z,25.17
2019-05-22T05:20:22.781Z,24.47
2019-05-22T05:22:53.470Z,22.77
2019-05-22T05:25:35.178Z,23.93
2019-05-22T05:28:17.433Z,23.47
2019-05-22T05:30:49.247Z,22.80
2019-05-22T05:33:52.022Z,22.60
2019-05-22T05:36:42.673Z,24.20
2019-05-22T05:42:42.884Z,23.37
2019-05-22T05:45:54.859Z,24.33
2019-05-22T05:48:28.547Z,23.20
2019-05-22T05:54:19.563Z,22.70
2019-05-22T05:56:53.839Z,21.43
2019-05-22T05:59:28.825Z,23.33
2019-05-22T06:02:20.532Z,23.83
2019-05-22T06:04:56.812Z,20.93
2019-05-22T06:07:47.742Z,21.53
2019-05-22T06:10:54.684Z,21.93
2019-05-22T06:13:25.462Z,23.20
2019-05-22T06:19:31.688Z,22.10
2019-05-22T06:25:14.385Z,20.70
2019-05-22T06:28:15.235Z,21.67
2019-05-22T06:31:05.835Z,20.07
2019-05-22T06:33:37.602Z,20.60
2019-05-22T06:36:16.794Z,20.00
2019-05-22T06:42:25.152Z,20.50
2019-05-22T06:44:57.376Z,19.60
2019-05-22T06:47:29.743Z,18.53
2019-05-22T06:50:01.455Z,18.33
2019-05-22T06:52:32.640Z,19.07
2019-05-22T06:55:07.921Z,18.07
2019-05-22T06:57:39.693Z,18.40
2019-05-22T07:00:29.903Z,18.80
2019-05-22T07:03:19.674Z,17.97
2019-05-22T07:06:09.463Z,19.20
2019-05-22T07:08:40.099Z,17.57
2019-05-22T07:11:13.383Z,17.63
2019-05-22T07:14:04.633Z,17.77
2019-05-22T07:16:54.432Z,18.27
2019-05-22T07:19:25.305Z,17.30
2019-05-22T07:21:56.705Z,15.90
2019-05-22T07:24:29.331Z,16.70
2019-05-22T07:27:34.701Z,16.20
2019-05-22T07:30:06.257Z,15.87
2019-05-22T07:36:07.647Z,16.80
2019-05-22T07:38:39.662Z,15.83
2019-05-22T07:41:11.695Z,16.53
2019-05-22T07:43:43.523Z,15.67
2019-05-22T07:46:14.390Z,15.17
2019-05-22T07:49:04.001Z,15.40
2019-05-22T07:51:51.517Z,15.30
2019-05-22T07:54:29.445Z,16.20
2019-05-22T07:57:39.613Z,16.17
2019-05-22T08:00:12.711Z,15.73
2019-05-22T08:03:02.586Z,15.43
2019-05-22T08:05:55.008Z,14.97
2019-05-22T08:08:37.291Z,14.87
2019-05-22T08:11:19.833Z,15.37
2019-05-22T08:14:01.751Z,14.70
2019-05-22T08:16:43.509Z,15.43
2019-05-22T08:19:25.152Z,15.37
2019-05-22T08:22:07.641Z,15.67
2019-05-22T08:24:57.693Z,17.33
2019-05-22T08:28:09.504Z,17.63
2019-05-22T08:31:19.260Z,12.87
2019-05-22T08:33:51.628Z,12.27
2019-05-22T08:37:01.457Z,12.37
2019-05-22T08:39:52.310Z,11.47
2019-05-22T08:42:24.900Z,11.33
2019-05-22T08:45:35.236Z,12.30
2019-05-22T08:48:25.091Z,10.93
2019-05-22T08:50:58.895Z,11.90
2019-05-22T08:53:49.115Z,11.23
2019-05-22T08:56:39.068Z,11.37
2019-05-22T08:59:28.694Z,10.97
2019-05-22T09:02:18.572Z,11.33
2019-05-22T09:05:08.351Z,11.17
2019-05-22T09:07:58.689Z,10.37
2019-05-22T09:10:46.815Z,9.90
2019-05-22T09:13:44.270Z,9.53
2019-05-22T09:16:35.520Z,9.23
2019-05-22T09:19:28.471Z,8.20
2019-05-22T09:22:04.634Z,7.47
2019-05-22T09:24:37.088Z,8.27
2019-05-22T09:27:11.611Z,7.67
2019-05-22T09:29:43.558Z,9.03
2019-05-22T09:32:14.901Z,8.47
2019-05-22T09:38:17.467Z,8.37
2019-05-22T09:41:08.541Z,8.50
2019-05-22T09:43:58.168Z,8.20
2019-05-22T09:46:40.232Z,7.63
2019-05-22T09:49:24.007Z,7.30
2019-05-22T09:52:05.574Z,8.10
2019-05-22T09:57:26.825Z,8.07
2019-05-22T10:00:09.320Z,7.30
2019-05-22T10:02:59.373Z,7.30
2019-05-22T10:05:50.367Z,7.23
2019-05-22T10:08:58.854Z,7.37
2019-05-22T10:11:30.623Z,7.93
2019-05-22T10:14:21.019Z,6.80
2019-05-22T10:16:52.187Z,6.63
2019-05-22T10:19:44.516Z,6.67
2019-05-22T10:22:36.835Z,5.60
2019-05-22T10:25:26.570Z,7.07
2019-05-22T10:31:17.939Z,6.73
2019-05-22T10:34:09.435Z,7.37
2019-05-22T10:37:00.179Z,7.00
2019-05-22T10:39:50.854Z,6.20
2019-05-22T10:42:44.633Z,5.97
2019-05-22T10:51:49.331Z,6.20
2019-05-22T10:54:40.289Z,6.57
2019-05-22T11:03:08.104Z,6.13
2019-05-22T11:06:07.064Z,6.43
2019-05-22T11:08:51.389Z,5.83
2019-05-22T11:12:04.412Z,6.77
2019-05-22T11:14:39.047Z,5.87
2019-05-22T11:17:28.999Z,5.87
2019-05-22T11:20:19.958Z,5.53
2019-05-22T11:22:52.514Z,5.03
2019-05-22T11:25:31.463Z,5.43
2019-05-22T11:28:04.608Z,5.80
2019-05-22T11:30:54.729Z,5.10
2019-05-22T11:33:44.780Z,4.20
2019-05-22T11:36:36.798Z,4.53
2019-05-22T11:39:39.366Z,4.93
2019-05-22T11:42:22.998Z,5.60
2019-05-22T11:47:51.282Z,5.80
2019-05-22T11:50:42.936Z,5.77
2019-05-22T11:53:35.191Z,5.73
2019-05-22T11:56:08.213Z,5.50
2019-05-22T11:58:40.874Z,6.00
2019-05-22T12:01:13.301Z,6.83
2019-05-22T12:03:46.580Z,6.90
2019-05-22T12:06:18.321Z,6.50
2019-05-22T12:09:13.168Z,6.37
2019-05-22T12:11:48.573Z,6.13
2019-05-22T12:14:40.736Z,6.20
2019-05-22T12:17:15.566Z,5.40
2019-05-22T12:19:49.863Z,5.57
2019-05-22T12:22:20.755Z,5.30
2019-05-22T12:25:31.105Z,5.97
2019-05-22T12:28:23.123Z,6.27
2019-05-22T12:31:13.053Z,5.80
2019-05-22T12:34:02.978Z,5.77
2019-05-22T12:36:52.816Z,5.33
2019-05-22T12:39:24.836Z,5.73
2019-05-22T12:42:18.432Z,6.27
2019-05-22T12:47:29.441Z,6.43
2019-05-22T12:50:01.093Z,5.87
2019-05-22T12:52:34.477Z,5.77
2019-05-22T12:55:09.281Z,6.23
2019-05-22T12:58:20.074Z,6.07
2019-05-22T13:01:10.724Z,6.30
2019-05-22T13:03:43.684Z,6.57
2019-05-22T13:06:35.292Z,6.17
2019-05-22T13:09:27.301Z,5.67
2019-05-22T13:12:19.954Z,6.20
2019-05-22T13:15:11.049Z,5.70
2019-05-22T13:21:00.666Z,4.70
2019-05-22T13:24:10.805Z,6.17
2019-05-22T13:33:16.094Z,4.57
2019-05-22T13:35:49.192Z,4.60
2019-05-22T13:38:21.719Z,4.37
2019-05-22T13:41:11.674Z,4.17
2019-05-22T13:44:01.621Z,3.90
2019-05-22T13:46:34.602Z,3.97
2019-05-22T13:49:24.330Z,4.63
2019-05-22T13:51:55.376Z,4.50
2019-05-22T13:54:28.448Z,5.17
2019-05-22T13:56:59.585Z,4.97
2019-05-22T13:59:49.198Z,4.60
2019-05-22T14:02:43.885Z,3.90
2019-05-22T14:05:34.879Z,4.10
2019-05-22T14:08:26.427Z,5.20
2019-05-22T14:11:18.249Z,4.80
2019-05-22T14:13:53.182Z,4.73
2019-05-22T14:16:48.668Z,4.23
2019-05-22T14:19:35.383Z,3.60
2019-05-22T14:22:48.404Z,3.60
2019-05-22T14:25:58.449Z,3.70
2019-05-22T14:28:48.129Z,3.57
2019-05-22T14:31:19.701Z,3.90
2019-05-22T14:34:10.212Z,3.27
2019-05-22T14:36:52.604Z,4.20
2019-05-22T14:39:47.281Z,3.80
2019-05-22T14:42:37.190Z,3.77
2019-05-22T14:45:09.720Z,3.77
2019-05-22T14:47:59.953Z,3.73
2019-05-22T14:50:49.668Z,3.97
2019-05-22T14:53:40.600Z,3.03
2019-05-22T14:59:07.416Z,3.50
2019-05-22T15:02:05.163Z,3.53
2019-05-22T15:04:45.721Z,3.40
2019-05-22T15:11:14.975Z,3.40
2019-05-22T15:13:11.470Z,3.30
2019-05-22T15:15:44.350Z,3.60
2019-05-22T15:18:34.383Z,2.97
2019-05-22T15:24:05.738Z,3.30
2019-05-22T15:26:58.839Z,3.70
2019-05-22T15:30:13.544Z,3.43
2019-05-22T15:33:19.991Z,2.93
2019-05-22T15:36:15.250Z,3.40
2019-05-22T15:38:56.690Z,3.40
2019-05-22T15:41:40.633Z,2.80
2019-05-22T15:44:31.394Z,2.90
2019-05-22T15:47:02.306Z,3.27
2019-05-22T15:50:10.818Z,3.50
2019-05-22T15:53:22.199Z,3.73
2019-05-22T15:56:12.443Z,3.87
2019-05-22T16:02:50.913Z,4.50
2019-05-22T16:05:42.302Z,4.27
2019-05-22T16:08:40.920Z,3.63
2019-05-22T16:11:31.588Z,3.90
2019-05-22T16:17:16.081Z,4.10
2019-05-22T16:20:07.730Z,4.00
2019-05-22T16:22:59.011Z,4.13
2019-05-22T16:25:50.068Z,4.00
2019-05-22T16:29:04.443Z,4.20
2019-05-22T16:34:30.274Z,4.00
2019-05-22T16:37:11.345Z,4.20
2019-05-22T16:43:19.541Z,4.57
2019-05-22T16:45:50.253Z,4.20
2019-05-22T16:48:43.683Z,4.80
2019-05-22T16:54:47.639Z,4.23
2019-05-22T16:57:57.801Z,4.60
2019-05-22T17:00:49.578Z,3.80
2019-05-22T17:06:49.825Z,3.50
2019-05-22T17:10:04.848Z,3.40
2019-05-22T17:12:47.672Z,3.60
2019-05-22T17:15:30.924Z,3.77
2019-05-22T17:18:13.075Z,3.33
2019-05-22T17:20:55.211Z,3.50
2019-05-22T17:23:37.102Z,3.10
2019-05-22T17:26:28.085Z,3.20
2019-05-22T17:29:17.864Z,2.93
2019-05-22T17:35:18.527Z,3.17
2019-05-22T17:38:09.608Z,3.20
2019-05-22T17:40:51.240Z,3.40
2019-05-22T17:43:24.629Z,3.30
2019-05-22T17:45:58.835Z,3.00
2019-05-22T17:48:31.701Z,3.37
2019-05-22T17:51:22.337Z,3.60
2019-05-22T17:54:13.842Z,3.50
2019-05-22T17:56:45.914Z,3.73
2019-05-22T17:59:36.492Z,3.73
2019-05-22T18:02:13.937Z,4.23
2019-05-22T18:05:06.623Z,3.77
2019-05-22T18:07:56.529Z,3.53
2019-05-22T18:10:50.983Z,3.90
2019-05-22T18:13:22.361Z,3.67
2019-05-22T18:15:53.668Z,3.20
2019-05-22T18:18:44.356Z,3.50
2019-05-22T18:21:15.534Z,3.37
2019-05-22T18:23:46.841Z,3.40
2019-05-22T18:26:36.967Z,3.67
2019-05-22T18:29:08.908Z,4.10
2019-05-22T18:31:43.293Z,4.20
2019-05-22T18:34:18.080Z,3.90
2019-05-22T18:37:10.469Z,3.93
2019-05-22T18:40:03.570Z,4.07
2019-05-22T18:42:35.984Z,3.73
2019-05-22T18:45:08.483Z,3.73
2019-05-22T18:47:40.486Z,3.03
2019-05-22T18:50:12.720Z,4.10
2019-05-22T18:53:04.891Z,3.90
2019-05-22T18:55:55.367Z,3.87
2019-05-22T18:58:30.585Z,3.77
2019-05-22T19:01:21.881Z,4.17
2019-05-22T19:03:53.747Z,4.50
2019-05-22T19:06:44.483Z,4.50
2019-05-22T19:09:36.140Z,4.83
2019-05-22T19:12:27.452Z,4.20
2019-05-22T19:15:20.876Z,4.40
2019-05-22T19:18:27.276Z,4.23
2019-05-22T19:21:19.696Z,4.50
2019-05-22T19:24:09.718Z,4.70
2019-05-22T19:26:59.809Z,4.50
2019-05-22T19:29:52.667Z,4.80
2019-05-22T19:32:43.959Z,3.93
2019-05-22T19:35:34.037Z,4.80
2019-05-22T19:38:24.722Z,5.70
2019-05-22T19:44:24.899Z,5.07
2019-05-22T19:47:15.785Z,5.00
2019-05-22T19:50:20.768Z,5.50
2019-05-22T19:55:58.375Z,5.23
2019-05-22T19:59:10.634Z,5.30
2019-05-22T20:07:52.405Z,5.40
2019-05-22T20:10:42.797Z,5.40
2019-05-22T20:13:33.563Z,5.67
2019-05-22T20:18:43.038Z,5.60
2019-05-22T20:21:34.175Z,5.83
2019-05-22T20:24:24.543Z,5.67
2019-05-22T20:27:14.275Z,5.30
2019-05-22T20:30:04.341Z,6.17
2019-05-22T20:32:54.562Z,6.83
2019-05-22T20:35:44.956Z,5.70
2019-05-22T20:38:35.063Z,6.23
2019-05-22T20:41:17.964Z,6.50
2019-05-22T20:44:02.712Z,7.03
2019-05-22T20:46:37.639Z,6.60
2019-05-22T20:49:26.631Z,6.90
2019-05-22T20:52:36.881Z,6.40
2019-05-22T21:01:41.077Z,7.40
2019-05-22T21:04:16.343Z,6.97
2019-05-22T21:07:09.921Z,7.00
2019-05-22T21:09:42.413Z,7.57
2019-05-22T21:12:35.902Z,7.07
2019-05-22T21:15:47.765Z,7.47
2019-05-22T21:19:01.945Z,7.83
2019-05-22T21:21:52.907Z,7.67
2019-05-22T21:27:39.791Z,7.73
2019-05-22T21:30:29.908Z,8.50
2019-05-22T21:33:22.619Z,7.93
2019-05-22T21:36:15.106Z,7.57
2019-05-22T21:38:53.236Z,8.03
2019-05-22T21:41:40.972Z,8.07
2019-05-22T21:44:19.883Z,8.00
2019-05-22T21:47:10.601Z,8.50
2019-05-22T21:50:19.147Z,8.70
2019-05-22T21:53:00.530Z,8.37
2019-05-22T21:55:32.234Z,9.03
2019-05-22T21:58:05.223Z,9.00
2019-05-22T22:01:13.707Z,8.90
2019-05-22T22:06:46.403Z,9.20
2019-05-22T22:09:27.788Z,8.27
2019-05-22T22:18:57.113Z,9.30
2019-05-22T22:22:09.018Z,9.10
2019-05-22T22:24:41.301Z,9.57
2019-05-22T22:27:32.707Z,8.53
2019-05-22T22:30:21.160Z,9.57
2019-05-22T22:32:52.674Z,10.20
2019-05-22T22:35:42.946Z,9.23
2019-05-22T22:38:52.036Z,8.90
2019-05-22T22:41:42.954Z,9.87
2019-05-22T22:44:32.795Z,10.30
2019-05-22T22:47:43.894Z,10.37
2019-05-22T22:53:31.622Z,10.67
2019-05-22T22:56:22.341Z,10.43
2019-05-22T22:59:13.237Z,10.80
2019-05-22T23:04:51.198Z,10.57
2019-05-22T23:07:32.539Z,10.93
2019-05-22T23:12:59.453Z,10.67
2019-05-22T23:15:42.238Z,12.13
2019-05-22T23:18:23.683Z,11.70
2019-05-22T23:21:09.115Z,12.50
2019-05-22T23:26:16.591Z,11.07
2019-05-22T23:28:47.280Z,12.50
2019-05-22T23:31:19.123Z,11.10
2019-05-22T23:34:09.690Z,10.83
2019-05-22T23:37:02.819Z,12.10
2019-05-22T23:39:54.337Z,12.17
2019-05-22T23:46:00.678Z,11.27
2019-05-22T23:48:50.173Z,11.80
2019-05-22T23:51:40.836Z,11.33
2019-05-22T23:54:35.014Z,11.00
